Aérodrome :
LOGIN :

S'inscrire | Disclaimer

   EN    FR    IT 

 










Légende :    VFR   VFR Marginal   IFR   IFR Intensif   IFR Très Intensif
Visi : 
Plafond : 
>= 8 km
>= 3000ft
5 à 8 km
1000 à 3000 ft
1500m à 5 km
500 à 1000 ft
800 à 1500m
200 à 500 ft
< 800m
< 200 ft
Symboles :   Orages  Brouillard  Fortes neiges  Fortes précipitations  Vent > 20 kt
SIGMETs :   Divers  Orages  Givrage  Turbulence  Onde Orograph.  Cendres Volcan.







- Altitude de l'aérodrome : 146 ft
- Code IATA : RKE


EKRK - Roskilde Tune

DERNIER METAR :
  • 240420Z 20005KT CAVOK 10/09 Q1011

METARs EXPIRÉS :
  • 240350Z AUTO 22003KT 5000 FEW056/// 09/08 Q1012
  • 240320Z AUTO 22004KT 6000 FEW067/// 08/08 Q1012
  • 240250Z AUTO 20004KT 8000 BKN190/// 09/08 Q1012
  • 240220Z AUTO 22003KT 9999 FEW070/// BKN190/// 09/08 Q1012
  • 240150Z AUTO 20003KT 9999 BKN067/// 10/08 Q1012

TAF TAF EKRK
Valide du 24 à 03h jusqu'au 24 à 12h UTC


240211Z 2403/2412 21008KT 9999 SCT025
Pas de NOTAMs connus pour ce terrain.



MET'MAP, la Météo Aéronautique d'un coup d'oeil ! - Copyright ORBIFLY Décembre 2007 - Disclaimer

ORBIFLY MET'MAP TEAM :

Programmation & Développement : Alexandra Zaïnal
Conception & Développement : Baudouin d'Aumeries
Co-Programmation & Développement : Marc-Olivier Méhu
Soutien technique & logistique : Manuel Goepfert

Contact : metmap@orbifly.com




SOURCES & CREDITS :

   NOAA